Weather observations for the past three days for
Eagles Nest Airport
Imperial (Metric)
Date Time (edt) Wind (mph) Vis. (mi.) Weather Sky Cond. Temperature (ºF) Relative Humidity Wind Chill (°F) Heat Index (°F) Pressure Precipitation (in)
Air Dwpt 6 hour altimeter (in) sea level (mb) 1 hr 3 hr 6 hr
Max. Min.
07 05:55 Calm 10.00 Overcast OVC022 52.3 50.9 95% 29.88 0.0
07 05:35 NW 5 10.00 Overcast OVC020 52.7 50.9 94% 29.87 0.0
07 05:15 N 3 10.00 Overcast SCT009 OVC020 53.1 51.3 94% 29.87 0.0
07 04:55 NW 5 10.00 Mostly Cloudy SCT009 BKN020 BKN028 53.1 51.3 94% 29.87 0.0
07 04:35 N 3 10.00 Mostly Cloudy BKN024 BKN030 BKN036 53.8 51.8 93% 29.86 0.0
07 04:15 N 8 10.00 Overcast SCT022 OVC028 54.5 52.7 94% 29.86 0.0
07 03:55 N 9 10.00 Overcast SCT010 BKN025 OVC044 55 52.9 92% 29.86 0.0
07 03:35 NW 6 10.00 Overcast SCT006 BKN010 OVC040 56.3 55.2 96% 29.86 0.0
07 03:15 N 5 10.00 Mostly Cloudy BKN041 60.3 55.8 85% 29.85 0.0
07 02:55 SW 3 10.00 Mostly Cloudy BKN043 59.5 58.6 97% 29.84 0.0
07 02:35 Calm 10.00 Partly Cloudy SCT045 61.5 56.8 85% 29.84 0.0
07 02:15 W 3 10.00 Partly Cloudy SCT045 SCT050 62.1 56.7 83% 29.86 0.0
07 01:55 W 5 10.00 Overcast SCT016 SCT022 OVC047 61.7 58.5 68.9 61 89% 29.85 0.0 0.03
07 01:35 Calm 10.00 Overcast BKN014 BKN022 OVC030 61 60.6 99% 29.86 0.0
07 01:15 NW 5 10.00 Overcast BKN014 OVC110 61.3 61.2 99% 29.85 0.0
07 00:55 Calm 10.00 Overcast SCT016 SCT070 OVC110 61.7 60.8 97% 29.82 0.0 0.01
07 00:35 Calm 10.00 Mostly Cloudy SCT016 SCT048 BKN090 61.9 60.4 95% 29.83 0.0 0.01
07 00:15 NW 7 10.00 Overcast SCT016 BKN080 OVC110 63 61.7 96% 29.84 0.0
06 23:55 N 5 10.00 Overcast SCT080 OVC110 63.3 61.7 95% 29.85 0.0 0.01
06 23:35 W 3 10.00 Overcast SCT028 SCT070 OVC100 63.9 61.5 92% 29.85 0.0
06 23:15 NW 5 10.00 Overcast SCT028 BKN037 OVC100 64 61.3 91% 29.86 0.0
06 22:55 W 3 7.00 Overcast SCT034 BKN045 OVC100 63.5 61 92% 29.85 0.0 0.01 0.01
06 22:35 SW 3 10.00 Overcast SCT036 BKN044 OVC090 64.9 59.9 84% 29.84 0.0
06 22:15 Calm 10.00 Mostly Cloudy SCT042 BKN048 BKN070 65.7 58.8 79% 29.84 0.0
06 21:55 Calm 10.00 Partly Cloudy SCT050 SCT070 65.3 59 80% 29.82 0.0
06 21:35 Calm 10.00 Mostly Cloudy SCT045 BKN050 65.3 59.2 81% 29.82 0.0
06 21:15 SW 3 10.00 Mostly Cloudy SCT041 BKN050 BKN060 66.2 59.2 78% 29.83 0.0
06 20:55 SW 5 10.00 Overcast SCT036 BKN044 OVC050 67.1 59.2 76% 29.84 0.0
06 20:35 S 5 10.00 Overcast SCT044 SCT050 OVC060 67.1 59.2 76% 29.83 0.0
06 20:15 S 5 10.00 Mostly Cloudy SCT044 BKN060 68 59 73% 29.83 0.0
06 19:55 S 7 10.00 Partly Cloudy SCT042 SCT048 SCT060 69.6 58.8 74.7 68.9 69% 29.83 0.0
06 19:35 SW 8 10.00 Partly Cloudy SCT042 SCT048 SCT055 70.2 59 68% 29.81 0.0
06 19:15 SW 7 G 16 10.00 Overcast SCT032 BKN048 OVC070 70.9 59.2 67% 29.82 0.0
06 18:55 SW 7 G 17 10.00 Mostly Cloudy SCT032 BKN043 BKN050 72.1 59 63% 29.82 0.0
06 18:35 SW 12 G 17 10.00 Partly Cloudy SCT032 SCT038 71.6 59 65% 29.81 0.0
06 18:15 SW 13 G 17 10.00 Partly Cloudy SCT034 SCT044 71.8 58.8 64% 29.8 0.0
06 17:55 SW 15 G 21 10.00 Overcast SCT031 BKN045 OVC050 71.1 58.5 65% 29.81 0.0
06 17:35 SW 13 G 25 10.00 Overcast SCT032 BKN038 OVC046 71.8 58.5 63% 29.81 0.0
06 17:15 SW 10 G 20 10.00 Overcast BKN033 OVC041 72.3 58.5 62% 29.79 0.0
06 16:55 SW 13 G 23 10.00 Overcast BKN033 BKN043 OVC050 74.3 59.5 60% 29.79 0.0
06 16:35 SW 16 G 24 10.00 Mostly Cloudy SCT031 BKN040 BKN048 72.3 58.3 61% 29.8 0.0
06 16:15 SW 14 G 21 10.00 Partly Cloudy SCT031 SCT040 SCT048 72.7 58.6 62% 29.79 0.0
06 15:55 SW 10 G 23 10.00 Partly Cloudy SCT031 SCT042 72.1 58.1 61% 29.79 0.0
06 15:35 SW 14 G 24 10.00 Partly Cloudy SCT042 73.2 58.1 59% 29.79 0.0
06 15:15 SW 21 G 26 10.00 Partly Cloudy and Breezy SCT029 71.4 57.6 62% 29.8 0.0
06 14:55 SW 10 G 21 10.00 Fair CLR 69.4 57.4 66% 29.8 0.0
06 14:35 SW 14 G 22 10.00 Partly Cloudy SCT044 SCT050 69.1 57.2 66% 29.81 0.0
06 14:15 SW 14 G 23 10.00 Partly Cloudy SCT035 SCT046 68.9 57.2 66% 29.81 0.0
06 13:55 SW 15 G 22 10.00 Mostly Cloudy BKN035 BKN046 68.4 57.2 68.4 59.2 68% 29.82 0.0 0.01
06 13:35 SW 13 G 20 10.00 Mostly Cloudy BKN038 67.5 56.7 68% 29.83 0.0
06 13:15 SW 15 G 26 10.00 Partly Cloudy SCT027 67.5 56.3 68% 29.83 0.0
06 12:55 SW 17 G 23 10.00 Partly Cloudy SCT027 67.8 56.5 67% 29.83 0.0
06 12:35 SW 15 G 26 10.00 Partly Cloudy SCT027 SCT033 67.5 56.3 68% 29.84 0.0
06 12:15 SW 14 G 24 10.00 Mostly Cloudy SCT027 BKN033 67.3 55.9 67% 29.83 0.0
06 11:55 SW 14 G 23 10.00 Partly Cloudy SCT027 SCT035 66.2 55.8 69% 29.85 0.0
06 11:35 SW 14 G 22 10.00 Partly Cloudy SCT030 SCT036 66.2 55 67% 29.84 0.0
06 11:15 SW 6 10.00 Fair CLR 64.8 56.1 74% 29.84 0.0
06 10:55 S 6 10.00 Partly Cloudy SCT044 SCT110 63.9 56.5 77% 29.83 0.0 0.01
06 10:35 S 8 10.00 Partly Cloudy SCT044 SCT070 SCT120 62.6 56.7 81% 29.83 0.0
06 10:15 S 5 10.00 Mostly Cloudy SCT029 SCT043 BKN065 61.3 56.5 84% 29.84 0.0
06 09:55 S 6 10.00 Mostly Cloudy SCT032 SCT050 BKN090 60.8 56.8 87% 29.85 0.0 0.01
06 09:35 Calm 10.00 Overcast SCT048 SCT050 OVC080 59.5 55.8 87% 29.85 0.0 0.01
06 09:15 SW 5 10.00 Overcast BKN055 BKN070 OVC080 59.9 55.4 85% 29.86 0.0
06 08:55 Calm 10.00 Overcast SCT035 SCT060 OVC080 59.5 54.7 84% 29.85 0.0
06 08:35 S 5 10.00 Overcast SCT048 SCT065 OVC100 59.5 53.8 81% 29.85 0.0
06 08:15 S 5 10.00 Overcast SCT055 BKN100 OVC120 59.9 53.2 79% 29.84 0.0
06 07:55 S 8 10.00 Overcast SCT055 OVC110 61.3 52.2 67.5 61 72% 29.86 0.0
06 07:35 S 5 10.00 Overcast OVC110 61 52.2 73% 29.83 0.0
06 07:15 S 6 10.00 Overcast SCT070 BKN100 OVC120 61.7 51.6 70% 29.83 0.0
06 06:55 S 7 10.00 Mostly Cloudy SCT060 BKN100 BKN110 62.2 50.5 66% 29.83 0.0
06 06:35 SW 6 10.00 Mostly Cloudy SCT100 BKN110 62.1 50 65% 29.83 0.0
06 06:15 SW 7 10.00 Mostly Cloudy BKN110 62.2 50 64% 29.83 0.0
06 05:55 SW 6 10.00 Mostly Cloudy BKN100 BKN120 62.2 49.5 63% 29.83 0.0
06 05:35 S 5 10.00 Fair CLR 62.6 49.3 62% 29.83 0.0
06 05:15 S 8 10.00 Fair CLR 62.6 49.1 62% 29.83 0.0
06 04:55 S 8 10.00 Partly Cloudy SCT110 63 49.1 61% 29.83 0.0
06 04:35 S 10 G 18 10.00 Partly Cloudy SCT110 63.5 48.6 58% 29.83 0.0
06 04:15 S 10 G 17 10.00 Fair CLR 63.9 48.2 57% 29.83 0.0
06 03:55 S 9 G 17 10.00 Partly Cloudy SCT110 64.2 47.8 55% 29.84 0.0
06 03:35 S 10 G 16 10.00 Mostly Cloudy BKN120 64.4 47.3 54% 29.84 0.0
06 03:15 S 8 G 18 10.00 Partly Cloudy SCT120 64.8 46.6 52% 29.85 0.0
06 02:55 S 10 G 21 10.00 Mostly Cloudy BKN090 BKN120 65.1 46.2 51% 29.85 0.0
06 02:15 S 13 G 18 10.00 Overcast OVC090 66.4 45.7 47% 29.86 0.0
06 01:55 S 7 10.00 Mostly Cloudy BKN090 67.1 45.1 71.4 66.4 45% 29.87 0.0
06 01:35 S 8 G 17 10.00 Partly Cloudy SCT090 67.5 44.8 44% 29.88 0.0
06 01:15 S 5 10.00 Partly Cloudy SCT090 67.3 44.6 44% 29.88 0.0
06 00:55 S 12 G 18 10.00 Fair CLR 67.3 44.2 44% 29.88 0.0
06 00:35 S 8 G 17 10.00 Fair CLR 68.2 43.9 42% 29.88 0.0
06 00:15 S 12 G 24 10.00 Fair CLR 68.7 43.7 41% 29.88 0.0
05 23:55 S 9 G 23 10.00 Fair CLR 69.1 43.3 40% 29.88 0.0
05 23:35 S 9 G 16 10.00 Fair CLR 69.6 43.3 39% 29.88 0.0
05 23:15 S 8 G 17 10.00 Fair CLR 69.4 43.2 39% 29.88 0.0
05 22:55 S 8 10.00 Fair CLR 68.9 43.2 40% 29.89 0.0
05 22:35 S 6 10.00 Fair CLR 68 42.8 40% 29.9 0.0
05 22:15 S 7 10.00 Fair CLR 68.2 42.3 39% 29.9 0.0
05 21:55 S 5 10.00 Fair CLR 68.5 42.3 39% 29.9 0.0
05 21:35 S 7 10.00 Fair CLR 68.9 42.4 38% 29.89 0.0
05 21:15 S 3 10.00 Fair CLR 68 42.4 40% 29.89 0.0
05 20:55 S 3 10.00 Fair CLR 68.9 41.9 38% 29.89 0.0
05 20:35 S 6 10.00 Fair CLR 69.6 41 35% 29.88 0.0
05 20:15 S 7 10.00 Fair CLR 70.3 40.3 34% 29.88 0.0
05 19:55 S 10 G 16 10.00 Fair CLR 71.6 39.7 80.8 71.6 32% 29.87 0.0
05 19:35 S 10 G 18 10.00 Fair CLR 72.9 40.6 31% 29.87 0.0
05 19:15 S 12 G 21 10.00 Fair CLR 73.8 41.7 32% 29.87 0.0
05 18:55 S 14 G 21 10.00 Fair CLR 73.4 41.9 32% 29.87 0.0
05 18:35 S 15 G 23 10.00 Fair CLR 73.9 41 31% 29.88 0.0
05 18:15 S 13 G 22 10.00 Fair CLR 74.5 39.9 29% 29.88 0.0
05 17:55 S 14 G 26 10.00 Fair CLR 75.9 38.7 26% 77 29.88 0.0
05 17:35 S 17 G 22 10.00 Fair CLR 76.8 37.8 24% 77 29.87 0.0
05 17:15 SW 17 G 24 10.00 NULL NULL 77 37.6 24% 77 29.87 0.0
05 16:55 S 15 G 22 0.00 Fair CLR 77.7 38.7 25% 78 29.87 0.0
05 16:35 S 13 G 28 0.00 Partly Cloudy SCT085 76.1 39.7 27% 77 29.87 0.0
05 16:15 S 13 G 24 0.00 Partly Cloudy SCT085 76.6 41.2 28% 77 29.87 0.0
05 14:15 SW 10 G 22 10.00 Fair CLR 78.1 38.3 24% 78 29.9 0.0
05 13:55 SW 15 G 22 10.00 Fair CLR 77.9 40.5 78.3 63.9 26% 78 29.91 0.0
05 13:35 SW 12 G 23 10.00 Fair CLR 78.3 42.4 28% 78 29.92 0.0
05 13:15 SW 10 G 20 10.00 Fair CLR 75.9 44.6 33% 77 29.92 0.0
05 12:55 SW 9 G 21 10.00 Fair CLR 75.6 44.1 33% 77 29.93 0.0
05 12:35 SW 12 G 23 10.00 Fair CLR 74.1 42.8 33% 29.94 0.0
05 12:15 SW 12 G 29 10.00 Fair CLR 74.3 44.2 34% 29.95 0.0
05 11:55 SW 15 G 23 10.00 Fair CLR 73.6 45.5 37% 29.95 0.0
05 11:35 SW 17 G 23 10.00 Fair CLR 73.4 45.9 38% 29.95 0.0
05 11:15 SW 13 G 18 10.00 Fair CLR 72.7 46 39% 29.96 0.0
05 10:55 SW 10 G 17 10.00 Fair CLR 71.8 45.9 40% 29.96 0.0
05 10:35 W 10 G 21 10.00 Fair CLR 70.9 45 40% 29.96 0.0
05 10:15 W 9 G 21 10.00 Fair CLR 70.5 45 40% 29.95 0.0
05 09:55 SW 6 G 16 10.00 Fair CLR 70.2 46 42% 29.95 0.0
05 09:35 SW 10 G 16 10.00 Fair CLR 68.9 45.5 43% 29.95 0.0
05 09:15 SW 5 10.00 Fair CLR 68.2 45.9 45% 29.95 0.0
05 08:55 SW 7 10.00 Fair CLR 67.1 44.8 45% 29.95 0.0
05 08:35 SW 7 10.00 Fair CLR 66 44.4 46% 29.95 0.0
05 08:15 Calm 10.00 Fair CLR 64.4 43.7 47% 29.96 0.0
05 07:55 W 5 10.00 Fair CLR 63.9 42.8 64.4 53.2 46% 29.95 0.0
05 07:35 W 6 10.00 Fair CLR 63.5 42.6 47% 29.95 0.0
05 07:15 SW 8 10.00 Fair CLR 60.6 41.7 50% 29.94 0.0
05 06:55 SW 5 10.00 Fair CLR 61.7 41 47% 29.94 0.0
05 06:35 SW 5 10.00 Fair CLR 61.2 41 48% 29.93 0.0
05 06:15 SW 6 10.00 Fair CLR 61.9 40.8 46% 29.92 0.0
05 05:55 W 6 10.00 Fair CLR 62.1 40.5 45% 29.92 0.0
05 05:35 W 7 10.00 Fair CLR 62.1 40.5 45% 29.92 0.0
05 05:15 SW 6 10.00 Fair CLR 61.9 40.3 45% 29.92 0.0
05 04:55 SW 7 10.00 Fair CLR 61 40.5 47% 29.92 0.0
05 04:35 SW 6 10.00 Fair CLR 58.5 40.5 51% 29.91 0.0
05 04:15 Calm 10.00 Fair CLR 54.1 42.1 64% 29.91 0.0
05 03:55 SE 3 10.00 Fair CLR 55 42.1 62% 29.91 0.0
05 03:35 Calm 10.00 Fair CLR 53.6 43.2 68% 29.9 0.0
05 03:15 Calm 10.00 Fair CLR 58.5 41.7 54% 29.9 0.0
05 02:55 Calm 10.00 Fair CLR 57.2 42.6 58% 29.9 0.0
05 02:35 SW 5 10.00 Fair CLR 62.4 41.5 47% 29.9 0.0
05 02:15 SW 6 10.00 Fair CLR 57.7 42.6 57% 29.89 0.0
05 01:55 Calm 10.00 Fair CLR 59.5 42.8 60.8 54.1 54% 29.9 0.0
05 01:35 S 3 10.00 Fair CLR 60.4 43.2 53% 29.9 0.0
05 00:55 SW 3 10.00 Fair CLR 59 45.1 60% 29.9 0.0
05 00:35 S 3 10.00 Fair CLR 58.5 45.5 62% 29.9 0.0
05 00:15 S 5 10.00 Fair CLR 56.8 46.4 68% 29.9 0.0
04 23:55 SW 3 10.00 Fair CLR 55 46.8 74% 29.9 0.0
04 23:35 SW 3 10.00 Fair CLR 55 47.3 75% 29.9 0.0
04 23:15 Calm 10.00 Fair CLR 54.9 48.7 80% 29.9 0.0
04 22:55 Calm 10.00 Fair CLR 55.2 49.1 80% 29.91 0.0
04 22:35 Calm 10.00 Fair CLR 54.1 49.8 85% 29.91 0.0
04 22:15 Calm 10.00 Fair CLR 55.8 50 81% 29.91 0.0
04 21:55 Calm 10.00 Fair CLR 55.6 52 88% 29.91 0.0
04 21:35 Calm 10.00 Fair CLR 55.6 52.7 90% 29.91 0.0
04 21:15 Calm 10.00 Fair CLR 56.5 52.9 88% 29.9 0.0
04 20:55 Calm 10.00 Fair CLR 57.6 52.7 84% 29.89 0.0
04 20:35 Calm 10.00 Partly Cloudy SCT090 59.7 52.3 77% 29.89 0.0
04 20:15 S 3 10.00 Overcast OVC090 59.5 53.1 79% 29.89 0.0
04 19:55 Calm 10.00 Overcast BKN090 OVC120 61 53.1 73.4 60.8 75% 29.89 0.0
04 19:35 Calm 10.00 Overcast SCT100 OVC110 61 52.5 74% 29.88 0.0
04 19:15 S 6 10.00 Overcast OVC110 61.7 52.2 71% 29.88 0.0
04 18:55 SW 3 10.00 Mostly Cloudy SCT042 SCT075 BKN110 60.8 52.3 74% 29.89 0.0
04 18:35 SW 9 G 23 7.00 Overcast SCT017 BKN075 OVC085 65.1 48.7 56% 29.91 0.0
04 18:15 SW 8 G 16 10.00 Mostly Cloudy SCT090 BKN110 71.6 43 36% 29.87 0.0
04 17:55 SW 14 10.00 Partly Cloudy SCT090 SCT110 72.7 43.3 35% 29.87 0.0
04 17:35 SW 14 G 22 10.00 Partly Cloudy SCT090 71.2 43 36% 29.88 0.0
04 17:15 SW 10 G 22 10.00 Partly Cloudy SCT070 73.4 43.2 34% 29.87 0.0
04 16:55 S 18 G 25 10.00 Partly Cloudy SCT070 73.2 43.3 34% 29.87 0.0
04 16:35 W 8 G 24 10.00 Fair CLR 72.9 42.4 34% 29.87 0.0
04 16:15 SW 13 G 22 10.00 Fair CLR 72.7 43 34% 29.87 0.0
04 15:55 SW 8 G 20 10.00 Fair CLR 71.8 42.6 35% 29.88 0.0
04 15:35 SW 12 G 26 10.00 Fair CLR 70.9 42.4 36% 29.9 0.0
04 15:15 SW 10 G 20 10.00 Fair CLR 68.9 41.9 38% 29.91 0.0
04 14:55 SW 10 G 18 10.00 Fair CLR 68.5 41.4 37% 29.92 0.0
04 14:35 SW 7 G 18 10.00 Fair CLR 68.5 41.2 37% 29.93 0.0
04 14:15 SW 8 10.00 Fair CLR 68.5 41.7 38% 29.93 0.0
04 13:55 SW 8 10.00 Fair CLR 66.9 41.2 67.5 51.6 39% 29.94 0.0
04 13:35 SW 10 G 18 10.00 Fair CLR 65.5 39.9 39% 29.95 0.0
04 13:15 SW 7 G 23 10.00 Fair CLR 64.8 39.4 39% 29.96 0.0
04 12:55 SW 9 10.00 Fair CLR 66.7 40.3 38% 29.96 0.0
04 12:35 SW 8 G 17 10.00 Fair CLR 66.2 39 37% 29.97 0.0
04 12:15 SW 7 10.00 Fair CLR 66 37.6 35% 29.97 0.0
04 11:55 SW 10 G 18 10.00 Fair CLR 66 37.8 35% 29.97 0.0
04 11:35 SW 13 G 22 10.00 Fair CLR 64.4 36.7 36% 29.97 0.0
04 11:15 SW 9 G 17 10.00 Partly Cloudy SCT090 64 36.7 36% 29.98 0.0
04 10:55 SW 9 G 20 10.00 Fair CLR 63.3 36 36% 29.98 0.0
04 10:35 SW 9 G 16 10.00 Fair CLR 63 35.4 36% 29.98 0.0
04 10:15 SW 8 G 20 10.00 Fair CLR 61.7 34.7 37% 29.98 0.0
04 09:55 SW 10 10.00 Fair CLR 61 34.3 37% 29.98 0.0
04 09:35 S 3 10.00 Fair CLR 58.6 33.8 39% 29.98 0.0
04 09:15 S 7 10.00 Fair CLR 57.4 33.1 40% 29.99 0.0
04 08:55 SW 5 10.00 Fair CLR 56.5 34 43% 29.99 0.0
04 08:35 Calm 10.00 Fair CLR 54.7 35.1 48% 29.99 0.0
04 08:15 Calm 10.00 Fair CLR 53.1 36 52% 30 0.0
04 07:55 Calm 10.00 Fair CLR 51.3 36 51.8 48.2 56% 30 0.0
04 07:35 Calm 10.00 Partly Cloudy SCT080 50 35.2 57% 30 0.0
04 07:15 Calm 10.00 Mostly Cloudy BKN080 50.9 33.6 52% 30 0.0
04 06:55 Calm 10.00 Overcast OVC080 51.1 32.9 50% 29.99 0.0
04 06:35 SW 3 10.00 Overcast OVC070 51.6 33.8 51% 29.99 0.0
04 06:15 W 3 10.00 Overcast BKN070 OVC080 51.3 33.4 51% 29.99 0.0
Date Time (edt) Wind (mph) Vis. (mi.) Weather Sky Cond. Air Dwpt Max. Min. Relative Humidity Wind Chill (°F) Heat Index (°F) altimeter (in) sea level (mb) 1 hr 3 hr 6 hr
6 hour
Temperature (ºF) Pressure Precipitation (in)